Time;durP1;ratioP1;P1;durP2;ratioP2;P2;SDS_P1;SDS_P2;PMS_P1;PMS_P2;Temp;Humidity;BMP_temperature;BMP_pressure;BME280_temperature;BME280_humidity;BME280_pressure;Samples;Min_cycle;Max_cycle;Signal;HPM_P1;HPM_P2
2020/12/28 00:00:29;;;;;;;16.50;9.55;;;2.60;77.50;;;1.63;61.92;92255.09;5050540;28;20236;-80
2020/12/28 00:02:56;;;;;;;13.70;8.25;;;2.60;77.50;;;1.65;61.78;92247.91;5059014;28;20188;-80
2020/12/28 00:05:26;;;;;;;16.08;9.18;;;2.60;77.50;;;1.65;61.92;92235.81;5018301;28;20212;-81
2020/12/28 00:07:55;;;;;;;12.95;8.43;;;2.60;77.50;;;1.69;61.82;92236.19;5045073;28;20196;-81
2020/12/28 00:10:23;;;;;;;15.57;9.18;;;2.70;77.50;;;1.69;61.96;92231.03;5063010;28;20640;-81
2020/12/28 00:12:50;;;;;;;14.50;9.27;;;2.70;77.50;;;1.65;61.85;92209.16;5042695;28;20222;-80
2020/12/28 00:15:23;;;;;;;15.70;9.05;;;2.70;78.20;;;1.68;61.91;92201.00;5042224;28;20212;-81
2020/12/28 00:17:53;;;;;;;13.23;8.25;;;2.70;77.40;;;1.68;61.81;92195.84;5035982;28;20306;-81
2020/12/28 00:20:22;;;;;;;15.82;9.48;;;2.70;77.40;;;1.68;61.91;92204.38;5048114;28;20216;-81
2020/12/28 00:22:50;;;;;;;16.00;8.88;;;2.70;77.40;;;1.71;61.61;92200.59;5063384;28;20212;-79
2020/12/28 00:25:19;;;;;;;13.32;8.98;;;2.70;77.40;;;1.69;61.85;92193.06;5054073;28;20272;-81
2020/12/28 00:27:47;;;;;;;17.38;9.50;;;2.70;77.40;;;1.66;61.92;92174.59;5045297;28;20287;-81
2020/12/28 00:30:14;;;;;;;14.32;7.93;;;2.70;77.40;;;1.69;62.03;92180.13;5048687;28;21437;-81
2020/12/28 00:32:41;;;;;;;14.73;9.77;;;2.70;77.40;;;1.70;61.81;92180.94;5037136;28;20196;-81
2020/12/28 00:35:09;;;;;;;16.95;9.98;;;2.70;77.30;;;1.69;61.85;92169.00;5032320;28;20220;-80
2020/12/28 00:37:38;;;;;;;15.20;8.48;;;2.70;77.40;;;1.65;61.79;92171.22;5034419;28;20371;-81
2020/12/28 00:40:07;;;;;;;13.85;9.18;;;2.70;77.40;;;1.71;61.82;92169.59;5041575;28;20231;-79
2020/12/28 00:42:34;;;;;;;15.23;9.23;;;2.70;77.30;;;1.67;62.01;92158.09;5042069;28;20342;-80
2020/12/28 00:45:01;;;;;;;17.35;9.68;;;2.70;77.30;;;1.71;61.73;92157.47;5041651;28;20220;-80
2020/12/28 00:47:28;;;;;;;14.93;9.18;;;2.70;77.30;;;1.71;61.86;92164.41;5041928;28;20280;-80
2020/12/28 00:49:56;;;;;;;16.08;9.23;;;2.70;77.30;;;1.68;61.97;92165.63;5061871;28;20262;-80
2020/12/28 00:52:22;;;;;;;15.32;9.43;;;2.70;77.30;;;1.69;62.04;92174.19;5051473;28;20287;-80
2020/12/28 00:54:49;;;;;;;14.35;9.25;;;2.80;77.40;;;1.70;61.82;92173.19;5021597;28;20294;-80
2020/12/28 00:57:16;;;;;;;18.63;10.18;;;2.70;77.30;;;1.70;61.86;92155.88;5037148;28;20596;-79
2020/12/28 00:59:44;;;;;;;16.98;8.88;;;2.70;77.20;;;1.70;61.86;92147.34;5054146;28;20685;-80
2020/12/28 01:02:16;;;;;;;17.75;10.25;;;2.70;77.30;;;1.68;61.76;92163.03;5057715;28;20560;-80
2020/12/28 01:04:52;;;;;;;17.83;9.82;;;2.70;77.30;;;1.69;61.65;92176.78;5046931;28;20223;-80
2020/12/28 01:07:23;;;;;;;17.70;9.80;;;2.70;77.30;;;1.66;61.66;92167.63;5040137;28;20270;-81
2020/12/28 01:09:56;;;;;;;19.17;10.82;;;2.70;77.30;;;1.69;61.86;92184.53;5056653;28;20218;-82
2020/12/28 01:12:23;;;;;;;16.33;9.95;;;2.70;77.20;;;1.68;61.70;92180.34;5057792;28;20200;-80
2020/12/28 01:14:56;;;;;;;17.10;9.70;;;2.70;77.30;;;1.67;61.64;92179.56;5044378;28;20746;-82
2020/12/28 01:17:31;;;;;;;19.38;10.32;;;2.70;77.30;;;1.69;61.95;92176.78;5026604;28;20223;-81
2020/12/28 01:20:25;;;;;;;18.05;10.50;;;2.70;77.30;;;1.67;61.71;92173.59;5048024;28;20219;-81
2020/12/28 01:22:55;;;;;;;16.88;9.43;;;2.70;77.30;;;1.67;61.81;92166.66;5052881;28;20206;-80
2020/12/28 01:25:22;;;;;;;16.10;9.80;;;2.70;77.30;;;1.65;61.60;92165.25;5054898;28;20631;-80
2020/12/28 01:27:55;;;;;;;16.95;9.60;;;2.70;77.30;;;1.64;61.91;92161.09;5062335;28;20195;-81
2020/12/28 01:30:24;;;;;;;18.08;9.90;;;2.70;77.30;;;1.60;61.95;92155.53;5043643;28;20232;-80
2020/12/28 01:32:53;;;;;;;16.27;9.95;;;2.70;77.30;;;1.60;61.78;92158.91;5049959;28;20285;-80
2020/12/28 01:35:36;;;;;;;15.40;9.35;;;2.70;77.30;;;1.61;61.76;92170.03;5038469;28;20234;-80
2020/12/28 01:38:05;;;;;;;14.65;9.40;;;2.60;77.20;;;1.63;61.72;92170.63;5061019;28;20652;-81
2020/12/28 01:40:32;;;;;;;15.70;9.45;;;2.70;77.30;;;1.63;61.94;92164.69;5051267;28;20690;-81
2020/12/28 01:43:11;;;;;;;15.15;9.40;;;2.60;77.30;;;1.59;61.80;92156.53;5051946;28;20233;-79
2020/12/28 01:45:38;;;;;;;17.90;9.63;;;2.80;77.40;;;1.63;61.82;92151.75;5066401;28;20211;-80
2020/12/28 01:48:08;;;;;;;17.08;9.07;;;2.70;77.30;;;1.59;61.63;92154.72;5044602;28;20196;-80
2020/12/28 01:50:37;;;;;;;16.88;10.13;;;2.70;77.40;;;1.61;61.64;92162.28;5031537;28;20215;-80
2020/12/28 01:53:04;;;;;;;16.58;9.57;;;2.60;77.40;;;1.58;61.78;92135.06;5073288;28;20200;-81
2020/12/28 01:55:32;;;;;;;14.93;9.18;;;2.60;77.30;;;1.57;61.91;92137.84;5042506;28;20224;-79
2020/12/28 01:58:08;;;;;;;16.27;10.05;;;2.60;77.30;;;1.56;61.73;92137.09;5040819;28;20757;-81
2020/12/28 02:00:35;;;;;;;15.50;9.25;;;2.60;77.40;;;1.57;62.00;92127.53;5035505;28;20231;-80
2020/12/28 02:03:08;;;;;;;15.68;9.32;;;2.60;77.30;;;1.54;61.95;92136.47;5033931;28;20194;-81
2020/12/28 02:05:50;;;;;;;14.48;9.30;;;2.60;77.40;;;1.52;61.91;92142.84;5057143;28;20231;-80
2020/12/28 02:08:17;;;;;;;15.70;9.50;;;2.60;77.30;;;1.55;62.11;92145.00;5060216;28;20204;-81
2020/12/28 02:10:44;;;;;;;16.65;9.80;;;2.60;77.40;;;1.53;61.99;92132.31;5036110;28;20216;-80
2020/12/28 02:13:11;;;;;;;14.45;9.52;;;2.60;77.70;;;1.48;61.83;92114.06;5051628;28;20349;-80
2020/12/28 02:15:57;;;;;;;16.25;9.05;;;2.60;77.40;;;1.47;62.09;92096.97;5063773;28;20242;-81
2020/12/28 02:18:30;;;;;;;15.13;9.50;;;2.60;77.30;;;1.45;62.46;92096.38;5050837;28;20195;-80
2020/12/28 02:21:07;;;;;;;15.73;9.45;;;2.60;77.40;;;1.46;62.25;92097.97;5037109;28;20619;-81
2020/12/28 02:23:35;;;;;;;16.08;9.57;;;2.60;77.40;;;1.45;62.24;92091.22;5027172;28;20246;-81
2020/12/28 02:26:02;;;;;;;17.33;10.38;;;2.60;77.40;;;1.45;62.12;92078.28;5044845;28;20224;-80
2020/12/28 02:28:29;;;;;;;15.05;9.77;;;2.50;77.30;;;1.42;62.22;92089.06;5032780;28;20314;-81
2020/12/28 02:30:57;;;;;;;14.82;9.38;;;2.50;77.40;;;1.44;62.14;92103.34;5026830;28;20211;-81
2020/12/28 02:33:40;;;;;;;16.38;9.73;;;2.50;77.40;;;1.42;62.05;92082.09;5039885;28;20225;-81
2020/12/28 02:36:17;;;;;;;15.02;9.32;;;2.60;77.50;;;1.45;62.02;92091.22;5052820;28;20195;-81
2020/12/28 02:38:45;;;;;;;17.30;9.68;;;2.50;77.40;;;1.43;62.20;92093.22;5058651;28;20206;-80
2020/12/28 02:41:12;;;;;;;14.43;9.32;;;2.50;77.40;;;1.44;61.71;92108.50;5040969;28;20593;-80
2020/12/28 02:43:58;;;;;;;16.73;9.35;;;2.60;77.50;;;1.43;61.87;92095.81;5056999;28;20380;-79
2020/12/28 02:46:43;;;;;;;14.85;9.15;;;2.50;77.50;;;1.43;61.88;92096.59;5051827;28;20211;-80
2020/12/28 02:49:46;;;;;;;15.02;8.88;;;2.50;77.40;;;1.41;62.20;92095.22;5024452;28;20742;-80
2020/12/28 02:52:30;;;;;;;14.15;9.10;;;2.50;77.40;;;1.40;62.14;92104.75;5058306;28;20207;-81
2020/12/28 02:55:16;;;;;;;16.25;9.13;;;2.50;77.40;;;1.37;62.64;92102.59;5053060;28;20710;-81
2020/12/28 02:58:02;;;;;;;16.42;9.32;;;2.50;77.40;;;1.36;61.93;92103.56;5063882;28;20667;-80
2020/12/28 03:00:50;;;;;;;15.90;9.75;;;2.50;77.40;;;1.36;61.88;92100.22;5057598;28;20237;-81
2020/12/28 03:03:36;;;;;;;16.10;10.15;;;2.40;77.40;;;1.35;62.13;92099.41;5045699;28;20195;-81
2020/12/28 03:06:21;;;;;;;16.52;9.60;;;2.40;77.40;;;1.33;62.02;92091.09;5059882;28;20565;-81
2020/12/28 03:09:07;;;;;;;14.80;9.40;;;2.40;77.40;;;1.32;61.95;92097.25;5060983;28;20689;-80
2020/12/28 03:12:07;;;;;;;16.27;9.57;;;2.40;77.40;;;1.32;61.92;92093.84;5054248;28;20207;-82
2020/12/28 03:14:53;;;;;;;14.55;9.55;;;2.40;77.40;;;1.32;62.02;92092.09;5038532;28;21163;-79
2020/12/28 03:17:38;;;;;;;16.13;9.60;;;2.40;77.50;;;1.30;62.01;92088.91;5051173;28;20269;-82
2020/12/28 03:20:23;;;;;;;14.80;9.50;;;2.40;77.50;;;1.30;62.00;92080.38;5052617;28;20330;-80
2020/12/28 03:23:08;;;;;;;16.92;9.52;;;2.40;77.50;;;1.32;61.99;92073.19;5051775;28;20358;-80
2020/12/28 03:25:53;;;;;;;16.08;9.48;;;2.50;77.50;;;1.29;61.79;92061.50;5047624;28;20225;-80
2020/12/28 03:28:39;;;;;;;16.90;10.75;;;2.40;77.50;;;1.28;62.08;92065.88;5042354;28;20191;-81
2020/12/28 03:31:28;;;;;;;18.63;10.57;;;2.40;77.60;;;1.28;62.40;92055.56;5059539;28;20214;-80
2020/12/28 03:34:14;;;;;;;15.68;9.40;;;2.40;77.60;;;1.29;61.91;92058.91;5060185;28;20227;-81
2020/12/28 03:37:00;;;;;;;17.67;10.18;;;2.40;77.50;;;1.28;62.13;92052.97;5042966;28;20286;-80
2020/12/28 03:39:45;;;;;;;17.50;10.48;;;2.30;77.40;;;1.24;62.39;92051.78;5056638;28;20290;-80
2020/12/28 03:42:30;;;;;;;17.60;10.27;;;2.40;78.40;;;1.28;62.19;92055.56;5044448;28;20204;-80
2020/12/28 03:45:16;;;;;;;16.13;9.45;;;2.40;77.50;;;1.29;62.28;92069.25;5056442;28;20234;-81
2020/12/28 03:48:01;;;;;;;16.45;10.13;;;2.30;77.50;;;1.26;62.21;92049.78;5048928;28;20191;-80
2020/12/28 03:50:46;;;;;;;17.63;10.65;;;2.40;78.30;;;1.27;61.96;92053.19;5052963;28;20237;-80
2020/12/28 03:53:31;;;;;;;16.60;9.68;;;2.30;77.50;;;1.27;62.32;92042.84;5063060;28;20274;-81
2020/12/28 03:56:20;;;;;;;17.42;10.20;;;2.30;77.50;;;1.23;61.98;92045.06;5051327;28;20346;-80
2020/12/28 03:59:06;;;;;;;18.15;10.73;;;2.40;77.50;;;1.27;62.20;92056.53;5050875;28;20198;-80
2020/12/28 04:01:52;;;;;;;15.13;9.82;;;2.30;77.40;;;1.23;62.24;92045.06;5057291;28;20232;-79
2020/12/28 04:04:40;;;;;;;16.38;10.07;;;2.30;77.50;;;1.20;62.17;92045.44;5056680;28;20226;-80
2020/12/28 04:07:29;;;;;;;16.65;10.50;;;2.30;77.50;;;1.22;61.99;92047.81;5057751;28;20198;-81
2020/12/28 04:10:34;;;;;;;19.33;10.55;;;2.30;77.50;;;1.22;62.23;92060.72;5066297;28;20706;-81
2020/12/28 04:13:15;;;;;;;16.42;10.18;;;2.30;77.50;;;1.23;62.09;92064.91;5026516;28;20220;-80
2020/12/28 04:15:42;;;;;;;15.50;10.25;;;2.30;77.40;;;1.19;61.87;92054.19;5031432;28;20231;-80
2020/12/28 04:18:09;;;;;;;17.92;10.77;;;2.30;77.50;;;1.23;62.11;92055.38;5053434;28;20220;-80
2020/12/28 04:20:36;;;;;;;17.73;10.40;;;2.30;77.40;;;1.24;62.09;92062.09;5044434;28;20759;-81
2020/12/28 04:23:03;;;;;;;16.70;10.20;;;2.30;77.50;;;1.26;61.92;92056.75;5057949;28;20585;-78
2020/12/28 04:25:29;;;;;;;15.13;10.10;;;2.30;77.50;;;1.24;61.84;92059.53;5036470;28;20752;-79
2020/12/28 04:27:56;;;;;;;16.90;10.40;;;2.30;77.50;;;1.23;61.95;92063.13;5056774;28;20211;-79
2020/12/28 04:30:23;;;;;;;16.65;10.25;;;2.30;77.50;;;1.24;61.85;92063.91;5047931;28;20317;-81
2020/12/28 04:32:50;;;;;;;15.25;9.95;;;2.30;77.40;;;1.23;62.12;92060.53;5053300;28;20562;-81
2020/12/28 04:35:17;;;;;;;16.23;9.98;;;2.30;77.40;;;1.19;61.90;92049.03;5055852;28;20301;-80
2020/12/28 04:37:44;;;;;;;17.75;9.70;;;2.30;77.40;;;1.22;61.73;92051.22;5047894;28;20269;-81
2020/12/28 04:40:11;;;;;;;18.35;11.15;;;2.30;77.40;;;1.23;61.99;92057.97;5044206;28;20219;-80
2020/12/28 04:42:43;;;;;;;17.85;10.52;;;2.30;77.40;;;1.25;61.62;92050.00;5064236;28;20240;-81
2020/12/28 04:45:11;;;;;;;16.67;10.13;;;2.30;77.40;;;1.24;61.94;92049.19;5045685;28;20260;-79
2020/12/28 04:47:38;;;;;;;16.05;10.18;;;2.30;77.40;;;1.23;61.89;92052.00;5051886;28;20227;-80
2020/12/28 04:50:06;;;;;;;15.90;9.48;;;2.30;77.40;;;1.26;61.90;92060.13;5047337;28;20219;-80
2020/12/28 04:52:36;;;;;;;15.73;9.48;;;2.30;77.40;;;1.26;61.90;92060.13;5050768;28;20215;-80
2020/12/28 04:55:03;;;;;;;14.20;8.98;;;2.30;77.50;;;1.27;61.60;92061.72;5034948;28;20217;-80
2020/12/28 04:57:30;;;;;;;17.52;10.45;;;2.30;77.30;;;1.28;61.68;92055.56;5046435;28;20214;-81
2020/12/28 04:59:57;;;;;;;16.45;9.93;;;2.30;77.40;;;1.26;61.53;92052.38;5040951;28;20432;-80
2020/12/28 05:02:25;;;;;;;14.63;9.43;;;2.30;77.40;;;1.30;61.66;92075.22;5053175;28;20278;-80
2020/12/28 05:05:06;;;;;;;14.98;10.23;;;2.30;77.40;;;1.25;61.74;92061.09;5065886;28;20291;-80
2020/12/28 05:07:33;;;;;;;15.40;9.80;;;2.30;77.30;;;1.26;61.60;92067.88;5028676;28;20204;-78
2020/12/28 05:10:00;;;;;;;16.27;9.95;;;2.30;77.30;;;1.29;61.72;92074.41;5044699;28;20219;-80
2020/12/28 05:12:27;;;;;;;15.90;9.55;;;2.30;77.30;;;1.28;61.76;92077.97;5027075;28;20288;-81
2020/12/28 05:15:06;;;;;;;15.05;10.43;;;2.30;77.20;;;1.27;61.68;92077.19;5049465;28;20227;-80
2020/12/28 05:17:34;;;;;;;15.52;10.20;;;2.30;78.10;;;1.26;61.68;92070.44;5059518;28;20227;-80
2020/12/28 05:20:02;;;;;;;15.82;10.10;;;2.30;77.20;;;1.28;61.65;92080.56;5042511;28;20208;-81
2020/12/28 05:22:30;;;;;;;15.85;10.30;;;2.30;77.20;;;1.24;61.64;92075.00;5043549;28;20202;-81
2020/12/28 05:24:58;;;;;;;15.43;10.25;;;2.30;77.20;;;1.24;61.47;92077.59;5068709;28;20260;-81
2020/12/28 05:27:26;;;;;;;16.98;10.70;;;2.30;77.20;;;1.24;61.37;92069.06;5036475;28;20204;-80
2020/12/28 05:29:53;;;;;;;16.20;10.00;;;2.30;78.00;;;1.21;61.79;92067.69;5069143;28;20598;-80
2020/12/28 05:32:20;;;;;;;18.13;11.35;;;2.30;77.20;;;1.24;61.64;92077.59;5044049;28;20199;-80
2020/12/28 05:34:47;;;;;;;13.23;9.32;;;2.30;77.20;;;1.23;61.40;92082.97;5053516;28;20274;-80
2020/12/28 05:37:14;;;;;;;19.08;10.70;;;2.30;77.30;;;1.25;61.58;92080.97;5067373;28;20216;-81
2020/12/28 05:39:42;;;;;;;14.60;9.98;;;2.30;77.30;;;1.20;61.56;92080.81;5034489;28;20760;-80
2020/12/28 05:42:12;;;;;;;18.65;11.80;;;2.30;77.30;;;1.23;61.62;92096.69;5043197;28;20195;-81
2020/12/28 05:44:44;;;;;;;21.02;12.73;;;2.30;77.30;;;1.22;61.65;92095.09;5039413;28;20224;-81
2020/12/28 05:47:16;;;;;;;17.30;11.52;;;2.30;77.20;;;1.21;61.60;92095.28;5026723;28;20187;-80
2020/12/28 05:49:46;;;;;;;19.35;12.52;;;2.30;77.20;;;1.18;61.59;92093.91;5048836;28;20257;-81
2020/12/28 05:52:15;;;;;;;19.42;12.57;;;2.30;77.20;;;1.18;61.72;92093.13;5034635;28;20196;-80
2020/12/28 05:54:43;;;;;;;19.63;11.57;;;2.20;77.10;;;1.18;61.56;92086.16;5051418;28;20265;-81
2020/12/28 05:57:10;;;;;;;17.45;11.55;;;2.20;77.10;;;1.18;61.47;92081.00;5061002;28;20693;-81
2020/12/28 05:59:38;;;;;;;20.40;11.75;;;2.20;77.10;;;1.18;61.51;92083.56;5027876;28;20224;-81
2020/12/28 06:02:09;;;;;;;19.23;12.05;;;2.20;77.10;;;1.16;61.45;92083.00;5051306;28;20196;-81
2020/12/28 06:04:38;;;;;;;20.20;12.82;;;2.20;77.20;;;1.18;61.59;92087.97;5026341;28;20876;-81
2020/12/28 06:07:05;;;;;;;28.67;16.27;;;2.20;77.20;;;1.18;61.63;92091.31;5052783;28;20231;-81
2020/12/28 06:09:33;;;;;;;34.63;17.55;;;2.20;77.20;;;1.19;61.59;92095.50;5056689;28;20212;-81
2020/12/28 06:12:04;;;;;;;30.73;15.80;;;2.20;77.20;;;1.18;61.53;92096.47;5062869;28;20196;-79
2020/12/28 06:14:39;;;;;;;22.23;13.48;;;2.20;77.20;;;1.20;61.52;92107.41;5042811;28;20277;-80
2020/12/28 06:17:12;;;;;;;20.52;12.88;;;2.20;77.20;;;1.21;61.62;92111.56;5069862;28;20273;-80
2020/12/28 06:19:41;;;;;;;23.23;12.60;;;2.20;78.00;;;1.20;61.58;92107.41;5040699;28;20249;-81
2020/12/28 06:22:22;;;;;;;22.23;12.80;;;2.20;77.30;;;1.21;61.42;92103.84;5038223;28;20215;-80
2020/12/28 06:24:58;;;;;;;27.27;12.82;;;2.20;77.20;;;1.19;61.56;92087.75;5038179;28;20223;-80
2020/12/28 06:27:46;;;;;;;22.77;13.88;;;2.20;77.30;;;1.20;61.55;92097.09;5067264;28;20674;-80
2020/12/28 06:30:22;;;;;;;21.42;13.27;;;2.20;77.30;;;1.21;61.49;92097.88;5051525;28;20243;-80
2020/12/28 06:33:00;;;;;;;22.08;13.30;;;2.30;77.30;;;1.19;61.55;92103.25;5053647;28;20646;-81
2020/12/28 06:35:31;;;;;;;23.85;13.57;;;2.30;77.20;;;1.19;61.53;92105.81;5061260;28;20303;-81
2020/12/28 06:38:02;;;;;;;22.60;13.85;;;2.30;77.30;;;1.18;61.24;92098.28;5050516;28;20226;-81
2020/12/28 06:40:36;;;;;;;24.50;14.77;;;2.20;77.20;;;1.19;61.24;92105.03;5047434;28;20216;-80
2020/12/28 06:43:15;;;;;;;29.75;15.07;;;2.20;77.20;;;1.17;61.64;92101.84;5079853;28;20196;-80
2020/12/28 06:45:46;;;;;;;21.75;13.15;;;2.20;77.30;;;1.16;61.42;92098.50;5038554;28;20211;-79
2020/12/28 06:48:24;;;;;;;23.80;15.20;;;2.20;77.20;;;1.15;61.32;92096.91;5043183;28;20622;-81
2020/12/28 06:50:53;;;;;;;22.75;13.50;;;2.20;77.20;;;1.14;61.38;92090.16;5037960;28;20219;-80
2020/12/28 06:53:24;;;;;;;23.85;14.18;;;2.20;77.20;;;1.13;61.48;92091.16;5034882;28;20662;-80
2020/12/28 06:56:05;;;;;;;20.15;12.45;;;2.20;77.20;;;1.12;61.42;92089.56;5052514;28;20697;-80
2020/12/28 06:58:34;;;;;;;23.08;13.55;;;2.20;77.10;;;1.10;61.44;92084.59;5061339;28;20214;-81
2020/12/28 07:01:05;;;;;;;24.02;13.90;;;2.20;77.10;;;1.10;61.33;92087.19;5054208;28;20604;-81
2020/12/28 07:03:33;;;;;;;23.27;13.50;;;2.20;77.10;;;1.10;61.60;92083.81;5049318;28;20188;-81
2020/12/28 07:06:04;;;;;;;23.10;13.32;;;2.20;77.10;;;1.08;61.30;92078.06;5048464;28;20303;-80
2020/12/28 07:08:39;;;;;;;25.30;13.40;;;2.20;77.20;;;1.07;61.54;92072.09;5024285;28;20210;-80
2020/12/28 07:11:06;;;;;;;21.17;12.73;;;2.10;77.10;;;1.06;61.58;92073.13;5027326;28;20239;-80
2020/12/28 07:13:33;;;;;;;29.73;17.73;;;2.20;77.20;;;1.08;61.52;92067.75;5047807;28;20627;-80
2020/12/28 07:16:07;;;;;;;25.85;15.50;;;2.10;77.10;;;1.08;61.40;92062.59;5071419;28;20219;-80
2020/12/28 07:18:36;;;;;;;24.52;14.68;;;2.10;77.90;;;1.07;61.64;92068.72;5051594;28;20223;-81
2020/12/28 07:21:04;;;;;;;22.40;13.57;;;2.10;77.20;;;1.05;61.52;92060.41;5051504;28;20227;-80
2020/12/28 07:23:33;;;;;;;21.60;13.15;;;2.10;77.20;;;1.06;61.72;92057.63;5061362;28;20269;-81
2020/12/28 07:26:12;;;;;;;23.75;13.95;;;2.10;77.30;;;1.08;61.60;92060.00;5071586;28;20211;-81
2020/12/28 07:28:46;;;;;;;20.98;13.30;;;2.10;77.30;;;1.10;61.56;92058.78;5051390;28;20192;-81
2020/12/28 07:31:14;;;;;;;23.70;14.50;;;2.10;77.30;;;1.08;61.85;92041.94;5046951;28;20257;-80
2020/12/28 07:33:48;;;;;;;20.45;12.75;;;2.10;77.30;;;1.13;61.59;92051.66;5054403;28;20688;-80
2020/12/28 07:36:20;;;;;;;23.00;13.63;;;2.10;77.30;;;1.13;61.72;92052.44;5071363;28;20203;-80
2020/12/28 07:38:49;;;;;;;27.58;14.63;;;2.20;77.40;;;1.10;61.60;92045.88;5051588;28;20220;-81
2020/12/28 07:41:20;;;;;;;26.40;15.25;;;2.10;77.30;;;1.14;61.68;92048.84;5068241;28;20523;-81
2020/12/28 07:43:55;;;;;;;26.33;14.68;;;2.10;77.30;;;1.15;61.48;92047.06;5067790;28;20207;-80
2020/12/28 07:46:31;;;;;;;24.40;14.52;;;2.20;77.40;;;1.16;61.50;92056.38;5034294;28;20199;-80
2020/12/28 07:49:13;;;;;;;24.75;14.45;;;2.20;77.40;;;1.13;61.87;92067.91;5068294;28;20576;-80
2020/12/28 07:51:42;;;;;;;25.08;14.70;;;2.20;77.40;;;1.16;61.75;92079.63;5035260;28;20196;-79
2020/12/28 07:54:23;;;;;;;25.63;13.95;;;2.20;77.40;;;1.19;61.68;92094.72;5036567;28;20249;-81
2020/12/28 07:56:58;;;;;;;24.48;13.18;;;2.20;77.50;;;1.19;61.77;92105.03;5052586;28;20201;-80
2020/12/28 08:00:19;;;;;;;20.55;12.82;;;2.20;77.40;;;1.21;61.55;92106.41;5059617;28;20210;-80
2020/12/28 08:03:09;;;;;;;22.60;13.35;;;2.20;77.40;;;1.20;61.54;92101.47;5012376;28;20219;-81
2020/12/28 08:05:36;;;;;;;21.40;13.75;;;2.20;77.40;;;1.23;61.33;92094.09;5065733;28;20261;-80
2020/12/28 08:08:03;;;;;;;24.58;14.40;;;2.20;77.40;;;1.26;61.57;92085.94;5054517;28;20196;-81
2020/12/28 08:10:31;;;;;;;24.20;13.68;;;2.20;77.30;;;1.29;61.70;92084.72;5030763;28;20712;-81
2020/12/28 08:13:01;;;;;;;26.73;16.30;;;2.30;77.50;;;1.31;61.81;92089.69;5062241;28;20314;-82
2020/12/28 08:15:35;;;;;;;23.55;14.45;;;2.30;77.50;;;1.34;61.62;92089.28;5039759;28;20249;-80
2020/12/28 08:18:11;;;;;;;23.15;14.20;;;2.30;77.50;;;1.35;61.54;92094.22;5056261;28;20689;-81
2020/12/28 08:20:39;;;;;;;29.83;15.18;;;2.30;77.50;;;1.38;61.70;92101.59;5029479;28;20219;-80
2020/12/28 08:23:07;;;;;;;24.65;14.05;;;2.30;77.50;;;1.41;61.72;92106.31;5051878;28;20238;-81
2020/12/28 08:25:36;;;;;;;25.60;14.30;;;2.40;77.60;;;1.44;61.49;92105.94;5055785;28;20218;-80
2020/12/28 08:28:04;;;;;;;28.55;15.90;;;2.40;77.60;;;1.43;61.54;92095.81;5054912;28;20206;-80
2020/12/28 08:30:32;;;;;;;29.17;16.50;;;2.40;77.50;;;1.44;61.40;92092.22;5049300;28;20221;-81
2020/12/28 08:33:01;;;;;;;29.10;16.20;;;2.40;77.50;;;1.47;61.54;92084.06;5037108;28;20191;-81
2020/12/28 08:35:30;;;;;;;26.30;16.25;;;2.40;77.50;;;1.52;61.45;92076.47;5038141;28;20242;-80
2020/12/28 08:37:57;;;;;;;23.02;14.70;;;2.40;77.50;;;1.56;61.49;92097.53;5032447;28;20223;-80
2020/12/28 08:40:24;;;;;;;24.73;15.15;;;2.40;77.50;;;1.58;61.40;92100.69;5047736;28;20216;-80
2020/12/28 08:42:57;;;;;;;28.13;16.85;;;2.50;77.50;;;1.61;61.54;92097.69;5048809;28;20195;-81
2020/12/28 08:45:27;;;;;;;38.13;21.80;;;2.50;77.50;;;1.59;61.47;92086.78;5038008;28;20220;-81
2020/12/28 08:47:56;;;;;;;30.73;18.38;;;2.50;77.50;;;1.62;61.44;92088.94;5070369;28;20192;-80
2020/12/28 08:50:26;;;;;;;28.60;17.58;;;2.60;77.50;;;1.63;61.43;92090.53;5055464;28;20261;-81
2020/12/28 08:52:54;;;;;;;28.38;16.65;;;2.60;77.40;;;1.63;61.30;92082.78;5042928;28;20299;-81
2020/12/28 08:55:22;;;;;;;31.48;18.27;;;2.70;77.50;;;1.66;61.45;92091.91;5054009;28;20562;-81
2020/12/28 08:57:55;;;;;;;28.52;17.95;;;2.60;77.40;;;1.70;61.50;92088.72;5034823;28;20264;-82
2020/12/28 09:00:23;;;;;;;26.55;15.38;;;2.60;77.40;;;1.73;61.36;92082.31;5044364;28;20224;-81
2020/12/28 09:02:56;;;;;;;25.48;16.05;;;2.60;77.50;;;1.76;61.46;92079.34;5045001;28;20638;-81
2020/12/28 09:05:24;;;;;;;26.05;15.45;;;2.70;77.50;;;1.79;61.17;92072.97;5037759;28;20220;-81
2020/12/28 09:07:52;;;;;;;26.83;15.05;;;2.70;77.50;;;1.82;61.47;92072.53;5056133;28;20194;-89
2020/12/28 09:10:19;;;;;;;29.85;16.90;;;2.70;77.50;;;1.84;61.25;92047.28;5040035;28;20216;-79
2020/12/28 09:12:46;;;;;;;28.50;17.20;;;2.70;77.50;;;1.84;61.29;92035.13;5068191;28;20212;-82
2020/12/28 09:15:13;;;;;;;30.00;17.70;;;2.80;77.50;;;1.86;61.45;92025.38;5042318;28;20278;-81
2020/12/28 09:17:41;;;;;;;27.98;17.02;;;2.70;77.40;;;1.90;61.22;92021.41;5047955;28;20311;-81
2020/12/28 09:20:08;;;;;;;26.25;16.10;;;2.80;77.50;;;1.89;61.29;92019.81;5045126;28;20228;-81
2020/12/28 09:22:35;;;;;;;30.35;16.90;;;2.80;77.50;;;1.92;61.40;92027.13;5061384;28;20266;-80
2020/12/28 09:25:02;;;;;;;28.83;17.33;;;2.80;77.50;;;1.95;61.01;92022.56;5044684;28;20269;-80
2020/12/28 09:27:29;;;;;;;26.65;16.33;;;2.80;77.50;;;1.99;61.05;92015.94;5045745;28;20199;-81
2020/12/28 09:29:56;;;;;;;29.20;17.80;;;2.80;77.50;;;2.01;61.46;92006.19;5041111;28;20224;-81
2020/12/28 09:32:23;;;;;;;32.47;18.00;;;2.90;77.50;;;2.04;61.22;91991.06;5051009;28;20676;-80
2020/12/28 09:34:51;;;;;;;28.60;16.52;;;2.90;77.50;;;2.16;61.28;92008.44;5045237;28;20220;-80
2020/12/28 09:37:18;;;;;;;28.45;16.65;;;2.90;77.60;;;2.19;61.15;92006.25;5043577;28;20271;-80
2020/12/28 09:39:46;;;;;;;28.23;16.77;;;3.00;77.60;;;2.24;60.96;92013.38;5059905;28;20211;-80
2020/12/28 09:42:13;;;;;;;31.48;18.90;;;3.00;77.50;;;2.24;60.92;92015.94;5051709;28;20195;-80
2020/12/28 09:44:40;;;;;;;32.75;18.75;;;3.10;77.50;;;2.18;60.91;92009.81;5043382;28;20595;-80
2020/12/28 09:47:08;;;;;;;29.02;17.33;;;3.10;77.40;;;2.22;60.91;92028.28;5067630;28;20717;-80
2020/12/28 09:49:35;;;;;;;28.60;17.73;;;3.10;77.30;;;2.20;60.76;92033.69;5069015;28;20216;-80
2020/12/28 09:52:02;;;;;;;29.98;17.70;;;3.10;77.30;;;2.19;60.71;92029.50;5037482;28;20196;-80
2020/12/28 09:54:29;;;;;;;27.98;17.17;;;3.10;77.30;;;2.20;60.92;92041.44;5048611;28;20273;-80
2020/12/28 09:57:05;;;;;;;27.77;16.92;;;3.10;77.30;;;2.18;60.96;92040.06;5042528;28;20207;-81
2020/12/28 09:59:39;;;;;;;27.00;16.48;;;3.10;77.30;;;2.20;60.69;92048.41;5056698;28;20219;-81
2020/12/28 10:02:07;;;;;;;33.42;16.23;;;3.10;77.20;;;2.20;60.84;92038.84;5051965;28;20192;-81
2020/12/28 10:04:35;;;;;;;33.60;16.70;;;3.10;77.20;;;2.24;60.81;92039.22;5031781;28;20630;-82
2020/12/28 10:07:01;;;;;;;38.30;22.73;;;3.10;77.30;;;2.26;61.08;92039.81;5036490;28;20295;-82
2020/12/28 10:09:29;;;;;;;43.55;25.08;;;3.10;77.40;;;2.32;61.22;92043.31;5055157;28;20215;-81
2020/12/28 10:11:56;;;;;;;44.17;26.17;;;3.20;77.50;;;2.36;61.09;92034.94;5051997;28;20208;-82
2020/12/28 10:14:23;;;;;;;46.13;25.50;;;3.20;77.50;;;2.44;61.07;92038.25;5038044;28;20240;-82
2020/12/28 10:16:50;;;;;;;302.17;114.57;;;3.20;77.50;;;2.51;61.03;92032.00;5041031;28;20207;-82
2020/12/28 10:19:18;;;;;;;379.35;127.30;;;3.20;77.60;;;2.55;60.87;92025.41;5049781;28;20322;-83
2020/12/28 10:21:45;;;;;;;174.20;77.45;;;3.30;77.60;;;2.65;60.52;92024.09;5022488;28;20613;-82
2020/12/28 10:24:12;;;;;;;95.00;49.45;;;3.30;77.60;;;2.65;60.73;92014.56;5059459;28;20771;-82
2020/12/28 10:26:38;;;;;;;58.28;32.05;;;3.40;77.60;;;2.77;60.94;92014.66;5050052;28;20207;-82
2020/12/28 10:29:05;;;;;;;34.42;21.77;;;3.50;77.60;;;2.81;60.66;92007.25;5060877;28;20223;-82
2020/12/28 10:31:32;;;;;;;29.63;19.17;;;3.50;77.60;;;2.78;60.35;91995.50;5042297;28;20250;-82
2020/12/28 10:33:58;;;;;;;36.15;19.35;;;3.60;77.40;;;2.85;60.31;91992.84;5046444;28;20234;-82
2020/12/28 10:36:28;;;;;;;30.58;19.98;;;3.70;77.40;;;2.86;60.19;91989.25;5043424;28;20208;-83
2020/12/28 10:38:59;;;;;;;144.30;69.63;;;3.60;77.30;;;2.95;60.39;91992.34;5045574;28;20216;-81
2020/12/28 10:41:28;;;;;;;57.50;34.47;;;3.70;77.30;;;2.99;60.57;91996.88;5036035;28;20295;-82